Flight Track Log - Related Links

Times and Time Zones

All times are in EDT time to prevent confusion due to time zone crossing. See the UAL4380 flight status page for this flight to view local times or setup timezone preferences in your user account.


Time Position Orientation Groundspeed Altitude Reporting Facility
EDT Latitude Longitude Course Direction KTS MPH feet Rate Location/Type
Tue 09:16:19 AM 29.9572 -95.3417 North 176 203 700  Level Houston Center
Tue 09:17:08 AM 29.9539 -95.3733 263° West 203 234 2,700 2,000 Climbing Houston Center
Tue 09:17:49 AM 29.9936 -95.3828 348° North 259 298 3,700 1,941 Climbing Houston Center
Tue 09:18:50 AM 30.0703 -95.3961 351° North 274 315 6,000 2,537 Climbing Houston Center
Tue 09:19:52 AM 30.1525 -95.4108 351° North 294 338 8,900 2,323 Climbing Houston Center
Tue 09:20:00 AM 30.4219 -95.4444 346° North  Level FlightAware Approximate
Tue 09:20:54 AM 30.2519 -95.4292 351° North 302 348 10,800  Level Houston Center
Tue 09:21:00 AM 30.5096 -95.4667 North  Level FlightAware Approximate
Tue 09:21:55 AM 30.3489 -95.4444 352° North 343 395 12,500  Level Houston Center
Tue 09:22:57 AM 30.4500 -95.4628 351° North 362 417 14,500 1,887 Climbing Houston Center
Tue 09:23:59 AM 30.5511 -95.4814 351° North 367 422 16,400 1,854 Climbing Houston Center
Tue 09:25:00 AM 30.6522 -95.5022 350° North 368 423 18,300 1,659 Climbing Houston Center
Tue 09:26:02 AM 30.7639 -95.5264 349° North 375 432 19,800 823 Climbing Houston Center
Tue 09:27:04 AM 30.8733 -95.5525 348° North 397 457 20,000 98 Climbing Houston Center
Tue 09:28:05 AM 30.9906 -95.5781 349° North 420 483 20,000  Level Houston Center
Tue 09:29:07 AM 31.1047 -95.6044 349° North 417 480 20,000  Level Houston Center
Tue 09:30:09 AM 31.2181 -95.6292 349° North 413 475 20,000  Level Houston Center
Tue 09:31:06 AM 31.3325 -95.6550 349° North 411 473 20,000  Level Fort Worth Center
Tue 09:32:06 AM 31.4294 -95.7092 335° Northwest 386 444 20,000  Level Fort Worth Center
Tue 09:33:06 AM 31.5242 -95.7756 329° Northwest 386 444 20,000  Level Fort Worth Center
Tue 09:34:06 AM 31.6253 -95.8397 332° Northwest 408 470 20,000  Level Fort Worth Center
Tue 09:35:07 AM 31.7136 -95.9042 328° Northwest 397 457 20,000  Level Fort Worth Center
Tue 09:36:06 AM 31.8106 -95.9636 332° Northwest 397 457 20,000  Level Fort Worth Center
Tue 09:37:06 AM 31.9031 -96.0258 330° Northwest 388 447 20,000 -50 Level Fort Worth Center
Tue 09:38:06 AM 32.0103 -96.0953 331° Northwest 383 441 19,900 -1,400 Descending Fort Worth Center
Tue 09:39:06 AM 32.1047 -96.1625 329° Northwest 383 441 17,200 -2,800 Descending Fort Worth Center
Tue 09:40:06 AM 32.1994 -96.2275 330° Northwest 389 448 14,300 -3,100 Descending Fort Worth Center
Tue 09:41:06 AM 32.2939 -96.2828 334° Northwest 378 435 11,000 -2,100 Descending Fort Worth Center
Tue 09:42:06 AM 32.3800 -96.3383 331° Northwest 362 417 10,100 -950 Descending Fort Worth Center
Tue 09:43:06 AM 32.4472 -96.3769 334° Northwest 317 365 9,100 -550 Descending Fort Worth Center
Tue 09:44:06 AM 32.5247 -96.4228 333° Northwest 287 330 9,000 -500 Descending Fort Worth Center
Tue 09:45:06 AM 32.5897 -96.4617 333° Northwest 287 330 8,100 -1,450 Descending Fort Worth Center
Tue 09:46:06 AM 32.6672 -96.5103 332° Northwest 287 330 6,100 -1,500 Descending Fort Worth Center
Tue 09:47:06 AM 32.7239 -96.5517 328° Northwest 282 325 5,100 -550 Descending Fort Worth Center
Tue 09:48:06 AM 32.7911 -96.6078 325° Northwest 269 310 5,000 -50 Descending Fort Worth Center
Tue 09:49:06 AM 32.8311 -96.6642 310° West 250 288 5,000  Level Fort Worth Center
Tue 09:49:33 AM 32.8500 -96.7000 302° West 252 290 5,000  Level Dallas / Fort Worth TRACON
Tue 09:50:33 AM 32.9000 -96.7500 320° Northwest 215 247 5,000 -421 Level Dallas / Fort Worth TRACON
Tue 09:51:27 AM 32.9333 -96.8000 308° West 217 250 4,200 -600 Descending Dallas / Fort Worth TRACON
Tue 09:52:33 AM 32.9833 -96.8667 312° West 219 252 3,800 -850 Descending Dallas / Fort Worth TRACON
Tue 09:53:27 AM 32.9833 -96.9167 270° West 209 241 2,500 -900 Descending Dallas / Fort Worth TRACON
Tue 09:54:33 AM 32.9333 -96.9500 209° Southwest 207 238 2,000 -455 Descending Dallas / Fort Worth TRACON

Login

Don't have an account? Register now (free) for customized features, flight alerts, and more!